Flight Track Log - Related Links

Times and Time Zones

All times are in EDT time to prevent confusion due to time zone crossing. See the AAL2360 flight status page for this flight to view local times or setup timezone preferences in your user account.

Time Position Orientation Groundspeed Altitude Reporting Facility
EDT Latitude Longitude Course Direction KTS MPH feet Rate Location/Type
Fri 03:39:28 PM 32.9500 -97.0333 357° North 205 236 3,000  Level Dallas / Fort Worth TRACON
Fri 03:41:00 PM 32.8655 -96.8000 North  Level FlightAware Approximate
Fri 03:41:52 PM 33.1103 -97.0092 North 238 274 10,400  Level Fort Worth Center
Fri 03:42:00 PM 32.9890 -96.8000 North  Level FlightAware Approximate
Fri 03:42:52 PM 33.1792 -96.9717 24° Northeast 270 311 11,900  Level Fort Worth Center
Fri 03:43:00 PM 33.1124 -96.8033 357° North  Level FlightAware Approximate
Fri 03:43:52 PM 33.2728 -96.9189 25° Northeast 322 371 13,900  Level Fort Worth Center
Fri 03:44:00 PM 33.2356 -96.8121 357° North  Level FlightAware Approximate
Fri 03:44:52 PM 33.3667 -96.8689 24° Northeast 359 413 16,300  Level Fort Worth Center
Fri 03:45:52 PM 33.4664 -96.8158 24° Northeast 372 428 17,900 1,900 Climbing Fort Worth Center
Fri 03:46:52 PM 33.5664 -96.7503 29° Northeast 394 453 20,100 1,950 Climbing Fort Worth Center
Fri 03:47:52 PM 33.6661 -96.6847 29° Northeast 400 460 21,800 1,750 Climbing Fort Worth Center
Fri 03:48:52 PM 33.7764 -96.6189 26° Northeast 421 484 23,600 1,700 Climbing Fort Worth Center
Fri 03:49:52 PM 33.8825 -96.5478 29° Northeast 426 490 25,200 1,350 Climbing Fort Worth Center
Fri 03:50:52 PM 33.9822 -96.4817 29° Northeast 431 496 26,300 1,250 Climbing Fort Worth Center
Fri 03:51:52 PM 34.0900 -96.4078 30° Northeast 441 507 27,700 1,450 Climbing Fort Worth Center
Fri 03:52:52 PM 34.2042 -96.3161 34° Northeast 441 507 29,200 1,350 Climbing Fort Worth Center
Fri 03:53:52 PM 34.3139 -96.2242 35° Northeast 461 531 30,400 1,050 Climbing Fort Worth Center
Fri 03:54:52 PM 34.4236 -96.1347 34° Northeast 466 536 31,300 1,150 Climbing Fort Worth Center
Fri 03:55:52 PM 34.5289 -96.0447 35° Northeast 466 536 32,700 850 Climbing Fort Worth Center
Fri 03:56:52 PM 34.6344 -95.9597 34° Northeast 460 529 33,000 150 Climbing Fort Worth Center
Fri 03:57:52 PM 34.7397 -95.8722 34° Northeast 460 529 33,000  Level Fort Worth Center
Fri 03:58:52 PM 34.8450 -95.7867 34° Northeast 460 529 33,000  Level Fort Worth Center
Fri 03:59:52 PM 34.9522 -95.6933 35° Northeast 460 529 33,000  Level Fort Worth Center
Fri 04:01:41 PM 35.1278 -95.5236 38° Northeast 473 544 33,000  Level Memphis Center
Fri 04:02:41 PM 35.2319 -95.4258 37° Northeast 473 544 33,000  Level Memphis Center
Fri 04:03:41 PM 35.3339 -95.3303 37° Northeast 468 539 33,000  Level Memphis Center
Fri 04:04:41 PM 35.4336 -95.2342 38° Northeast 463 533 33,000  Level Memphis Center
Fri 04:05:41 PM 35.5331 -95.1381 38° Northeast 463 533 33,000  Level Memphis Center
Fri 04:06:41 PM 35.6328 -95.0417 38° Northeast 463 533 33,000  Level Memphis Center
Fri 04:07:41 PM 35.7322 -94.9450 38° Northeast 463 533 33,000  Level Memphis Center
Fri 04:08:41 PM 35.8317 -94.8481 38° Northeast 458 527 33,000  Level Memphis Center
Fri 04:09:41 PM 35.9353 -94.7486 38° Northeast 458 527 33,000  Level Memphis Center
Fri 04:10:41 PM 36.0347 -94.6511 38° Northeast 458 527 33,000  Level Memphis Center
Fri 04:11:41 PM 36.1339 -94.5536 38° Northeast 458 527 33,000  Level Memphis Center
Fri 04:13:34 PM 36.3172 -94.3750 38° Northeast 463 533 33,000  Level Kansas City Center
Fri 04:14:38 PM 36.4394 -94.2556 38° Northeast 466 536 33,000  Level Kansas City Center
Fri 04:15:38 PM 36.5414 -94.1544 39° Northeast 469 540 33,000  Level Kansas City Center
Fri 04:16:42 PM 36.6431 -94.0547 38° Northeast 466 536 33,000  Level Kansas City Center
Fri 04:17:43 PM 36.7442 -93.9542 39° Northeast 466 536 33,000  Level Kansas City Center
Fri 04:18:47 PM 36.8456 -93.8531 39° Northeast 467 537 33,000  Level Kansas City Center
Fri 04:19:48 PM 36.9628 -93.7339 39° Northeast 466 536 33,000 49 Level Kansas City Center
Fri 04:20:49 PM 37.0647 -93.6314 39° Northeast 468 539 33,100 488 Climbing Kansas City Center
Fri 04:21:51 PM 37.1669 -93.5256 40° Northeast 472 543 34,000 667 Climbing Kansas City Center
Fri 04:22:55 PM 37.2711 -93.4236 38° Northeast 473 544 34,500 384 Climbing Kansas City Center
Fri 04:23:56 PM 37.3744 -93.3172 39° Northeast 476 548 34,800 240 Climbing Kansas City Center
Fri 04:25:00 PM 37.4811 -93.2156 37° Northeast 478 550 35,000 96 Climbing Kansas City Center
Fri 04:26:01 PM 37.5925 -93.1147 36° Northeast 485 558 35,000  Level Kansas City Center
Fri 04:27:02 PM 37.7253 -92.9908 36° Northeast 489 563 35,000  Level Kansas City Center
Fri 04:28:06 PM 37.8361 -92.8875 36° Northeast 491 565 35,000  Level Kansas City Center
Fri 04:29:06 PM 37.9467 -92.7831 37° Northeast 490 564 35,000  Level Kansas City Center
Fri 04:30:07 PM 38.0572 -92.6789 37° Northeast 488 562 35,000  Level Kansas City Center
Fri 04:31:11 PM 38.1683 -92.5758 36° Northeast 490 564 35,000  Level Kansas City Center
Fri 04:32:12 PM 38.2803 -92.4686 37° Northeast 490 564 35,000  Level Kansas City Center
Fri 04:33:15 PM 38.3919 -92.3617 37° Northeast 495 570 35,000  Level Kansas City Center
Fri 04:34:15 PM 38.5031 -92.2561 37° Northeast 495 570 35,000  Level Kansas City Center
Fri 04:35:19 PM 38.6128 -92.1514 37° Northeast 490 564 35,000  Level Kansas City Center
Fri 04:36:20 PM 38.7225 -92.0442 37° Northeast 492 566 35,000  Level Kansas City Center
Fri 04:37:24 PM 38.8531 -91.9183 37° Northeast 488 562 35,000  Level Kansas City Center
Fri 04:38:24 PM 38.9628 -91.8128 37° Northeast 489 563 35,000  Level Kansas City Center
Fri 04:39:26 PM 39.0731 -91.7050 37° Northeast 493 567 35,000  Level Kansas City Center
Fri 04:40:29 PM 39.1744 -91.6061 37° Northeast 496 571 35,000  Level Kansas City Center
Fri 04:41:31 PM 39.2856 -91.4986 37° Northeast 497 572 35,000  Level Kansas City Center
Fri 04:42:34 PM 39.4222 -91.3625 38° Northeast 509 586 35,000 -484 Level Kansas City Center
Fri 04:43:35 PM 39.5358 -91.2494 37° Northeast 512 589 34,000 -934 Descending Kansas City Center
Fri 04:44:36 PM 39.6469 -91.1394 37° Northeast 507 583 33,100 -480 Descending Kansas City Center
Fri 04:45:40 PM 39.7686 -91.0169 38° Northeast 507 583 33,000 -48 Descending Kansas City Center
Fri 04:46:41 PM 39.8853 -90.9017 37° Northeast 508 585 33,000  Level Kansas City Center
Fri 04:47:42 PM 39.9975 -90.7878 38° Northeast 509 586 33,000  Level Kansas City Center
Fri 04:48:46 PM 40.1078 -90.6742 38° Northeast 507 583 33,000 -94 Level Kansas City Center
Fri 04:49:50 PM 40.2206 -90.5614 37° Northeast 509 586 32,800 -762 Descending Chicago Center
Fri 04:50:52 PM 40.3528 -90.4169 40° Northeast 517 595 31,400 -1,500 Descending Chicago Center
Fri 04:51:54 PM 40.4472 -90.2744 49° Northeast 517 595 29,700 -1,548 Descending Chicago Center
Fri 04:52:56 PM 40.5386 -90.1422 48° Northeast 500 575 28,200 -1,452 Descending Chicago Center
Fri 04:53:58 PM 40.6333 -90.0072 47° Northeast 502 578 26,700 -1,452 Descending Chicago Center
Fri 04:55:00 PM 40.7258 -89.8742 47° Northeast 495 570 25,200 -1,306 Descending Chicago Center
Fri 04:56:02 PM 40.8322 -89.7164 48° Northeast 483 556 24,000 -581 Descending Chicago Center
Fri 04:57:04 PM 40.9233 -89.5878 47° Northeast 479 551 24,000  Level Chicago Center
Fri 04:58:07 PM 41.0072 -89.4667 47° Northeast 481 554 24,000 -720 Level Chicago Center
Fri 04:59:09 PM 41.0956 -89.3347 48° Northeast 478 550 22,500 -2,226 Descending Chicago Center
Fri 05:00:11 PM 41.1983 -89.1822 48° Northeast 462 532 19,400 -2,758 Descending Chicago Center
Fri 05:01:13 PM 41.2814 -89.0556 49° Northeast 434 499 16,800 -2,613 Descending Chicago Center
Fri 05:02:15 PM 41.3564 -88.9397 49° Northeast 417 480 14,000 -2,565 Descending Chicago Center
Fri 05:03:17 PM 41.4294 -88.8303 48° Northeast 399 459 11,500 -1,403 Descending Chicago Center
Fri 05:04:19 PM 41.5000 -88.7233 49° Northeast 388 447 11,100 -194 Descending Chicago Center
Fri 05:05:21 PM 41.5531 -88.5994 60° Northeast 392 451 11,100  Level Chicago Center
Fri 05:06:23 PM 41.6064 -88.4739 60° Northeast 392 451 11,100 -484 Level Chicago Center
Fri 05:07:25 PM 41.6825 -88.3389 53° Northeast 378 435 10,100 -484 Descending Chicago Center
Fri 05:08:27 PM 41.7456 -88.2292 52° Northeast 372 428 10,100 -48 Level Chicago Center
Fri 05:09:29 PM 41.8086 -88.1208 52° Northeast 368 423 10,000 -528 Descending Chicago Center
Fri 05:10:32 PM 41.8619 -88.0286 52° Northeast 328 377 9,000 -1,074 Descending Chicago Center
Fri 05:11:04 PM 41.8833 -87.9667 65° Northeast 310 357 8,300 -587 Descending Chicago TRACON
Fri 05:12:04 PM 41.8833 -87.8500 90° East 311 358 8,100 -446 Descending Chicago TRACON
Fri 05:13:05 PM 41.8833 -87.7333 90° East 306 352 7,400 -1,190 Descending Chicago TRACON
Fri 05:14:05 PM 41.8833 -87.6167 90° East 298 343 5,700 -1,143 Descending Chicago TRACON
Fri 05:15:11 PM 41.8833 -87.5000 90° East 277 319 5,000 -300 Descending Chicago TRACON
Fri 05:16:05 PM 41.8833 -87.4167 90° East 259 298 5,100 65 Climbing Chicago TRACON
Fri 05:16:44 PM 41.8839 -87.3631 89° East 269 310 5,100  Level Chicago Center
Fri 05:17:46 PM 41.9322 -87.3161 36° Northeast 247 284 5,100 -48 Level Chicago Center
Fri 05:18:48 PM 41.9692 -87.3650 315° West 200 230 5,000 -71 Descending Chicago Center
Fri 05:19:11 PM 41.9667 -87.4000 265° West 174 200 5,000 72 Level Chicago TRACON
Fri 05:20:11 PM 41.9667 -87.4500 270° West 150 173 5,100  Climbing Chicago TRACON
Fri 05:21:11 PM 41.9667 -87.5167 270° West 151 174 5,000 -50 Descending Chicago TRACON
Fri 05:22:11 PM 41.9667 -87.5667 270° West 150 173 5,000 -149 Level Chicago TRACON
Fri 05:23:12 PM 41.9667 -87.6167 270° West 152 175 4,700 -595 Descending Chicago TRACON
Fri 05:24:12 PM 41.9667 -87.6833 270° West 154 177 3,800 -900 Descending Chicago TRACON

Login

Don't have an account? Register now (free) for customized features, flight alerts, and more!